Time;durP1;ratioP1;P1;durP2;ratioP2;P2;SDS_P1;SDS_P2;PMS_P1;PMS_P2;Temp;Humidity;BMP_temperature;BMP_pressure;BME280_temperature;BME280_humidity;BME280_pressure;Samples;Min_cycle;Max_cycle;Signal;HPM_P1;HPM_P2
2022/11/19 00:00:41;;;;;;;1.13;0.80;;;;;;;12.13;83.21;93923.81;5085880;28;20267;-70
2022/11/19 00:03:06;;;;;;;3.13;1.20;;;;;;;12.11;82.70;93925.84;5065477;28;20191;-68
2022/11/19 00:05:41;;;;;;;1.00;0.70;;;;;;;12.17;81.19;93911.91;5084636;28;20185;-68
2022/11/19 00:08:07;;;;;;;2.13;1.03;;;;;;;12.09;81.48;93910.22;5063621;28;20216;-68
2022/11/19 00:10:34;;;;;;;1.50;0.70;;;;;;;12.04;81.17;93903.88;5070842;28;20216;-68
2022/11/19 00:13:00;;;;;;;1.03;0.60;;;;;;;12.08;80.45;93892.78;5071377;28;20255;-68
2022/11/19 00:15:26;;;;;;;0.70;0.47;;;;;;;12.06;80.81;93910.59;5076484;28;20208;-68
2022/11/19 00:17:51;;;;;;;0.97;0.53;;;;;;;12.13;78.79;93918.56;5070016;28;20188;-68
2022/11/19 00:20:17;;;;;;;1.07;0.50;;;;;;;12.18;78.07;93928.53;5081091;28;20186;-70
2022/11/19 00:22:43;;;;;;;2.10;0.60;;;;;;;12.17;78.12;93935.63;5071352;28;20231;-68
2022/11/19 00:25:10;;;;;;;0.40;0.40;;;;;;;12.16;78.18;93928.72;5069997;28;20176;-68
2022/11/19 00:27:35;;;;;;;0.87;0.50;;;;;;;12.17;77.00;93924.28;5069082;28;20193;-62
2022/11/19 00:30:02;;;;;;;0.70;0.50;;;;;;;12.17;76.79;93925.09;5085305;28;20181;-66
2022/11/19 00:32:27;;;;;;;1.33;0.60;;;;;;;12.16;76.81;93922.63;5069907;28;20216;-67
2022/11/19 00:34:53;;;;;;;1.70;0.60;;;;;;;12.17;76.87;93925.09;5071823;28;20189;-62
2022/11/19 00:37:19;;;;;;;0.70;0.50;;;;;;;12.15;77.05;93932.38;5087562;28;20307;-66
2022/11/19 00:39:44;;;;;;;0.70;0.50;;;;;;;12.17;76.58;93925.09;5066426;28;20184;-66
2022/11/19 00:42:10;;;;;;;0.37;0.37;;;;;;;12.11;77.48;93934.56;5067890;28;20193;-67
2022/11/19 00:44:35;;;;;;;0.73;0.60;;;;;;;12.11;78.17;93926.66;5086277;28;20214;-67
2022/11/19 00:47:00;;;;;;;0.43;0.37;;;;;;;12.10;77.56;93921.56;5085777;28;20193;-67
2022/11/19 00:49:26;;;;;;;1.40;0.37;;;;;;;12.02;78.08;93916.41;5070743;28;20260;-67
2022/11/19 00:51:52;;;;;;;0.60;0.60;;;;;;;12.03;78.28;93918.88;5068561;28;20301;-68
2022/11/19 00:54:17;;;;;;;0.97;0.53;;;;;;;12.00;78.24;93921.06;5066022;28;20184;-64
2022/11/19 00:56:43;;;;;;;1.13;0.50;;;;;;;11.90;78.30;93922.19;5085092;28;20177;-64
2022/11/19 00:59:08;;;;;;;1.17;0.50;;;;;;;11.98;76.84;93907.28;5072035;28;20521;-64
2022/11/19 01:01:34;;;;;;;1.33;0.50;;;;;;;11.82;77.54;93906.47;5070378;28;20200;-64
2022/11/19 01:03:59;;;;;;;0.50;0.50;;;;;;;11.84;76.72;93906.25;5071409;28;20181;-64
2022/11/19 01:06:25;;;;;;;1.03;0.50;;;;;;;11.74;77.46;93911.84;5061199;28;20720;-64
2022/11/19 01:08:52;;;;;;;1.03;0.50;;;;;;;11.79;76.30;93914.75;5070550;28;20188;-64
2022/11/19 01:11:23;;;;;;;0.40;0.40;;;;;;;11.77;76.47;93918.56;5072223;28;20213;-64
2022/11/19 01:13:49;;;;;;;0.43;0.43;;;;;;;11.74;76.83;93919.75;5066055;28;20188;-64
2022/11/19 01:16:18;;;;;;;0.23;0.23;;;;;;;11.69;76.69;93917.66;5071181;28;20188;-63
2022/11/19 01:18:46;;;;;;;0.73;0.60;;;;;;;11.65;77.09;93916.41;5070702;28;20185;-63
2022/11/19 01:21:12;;;;;;;0.73;0.40;;;;;;;11.70;77.15;93921.09;5063611;28;20181;-68
2022/11/19 01:23:39;;;;;;;0.57;0.57;;;;;;;11.67;76.56;93911.75;5068314;28;20239;-68
2022/11/19 01:26:05;;;;;;;0.70;0.60;;;;;;;11.63;76.79;93913.16;5069521;28;20185;-64
2022/11/19 01:28:30;;;;;;;0.50;0.40;;;;;;;11.65;76.20;93912.94;5078141;28;20192;-64
2022/11/19 01:30:56;;;;;;;0.53;0.50;;;;;;;11.68;76.37;93915.19;5068314;28;20208;-71
2022/11/19 01:33:21;;;;;;;0.73;0.40;;;;;;;11.69;76.59;93916.84;5065945;28;20465;-64
2022/11/19 01:35:58;;;;;;;1.63;0.63;;;;;;;11.62;76.62;93934.38;5068469;28;20260;-70
2022/11/19 01:38:25;;;;;;;0.87;0.50;;;;;;;11.59;76.51;93932.13;5083431;28;20193;-64
2022/11/19 01:40:51;;;;;;;0.63;0.53;;;;;;;11.60;76.84;93939.84;5074963;28;20189;-64
2022/11/19 01:43:16;;;;;;;0.50;0.40;;;;;;;11.58;76.56;93933.13;5070555;28;20184;-69
2022/11/19 01:45:47;;;;;;;0.90;0.55;;;;;;;11.65;76.08;93936.66;5073401;28;20204;-69
2022/11/19 01:48:34;;;;;;;0.80;0.57;;;;;;;11.63;76.57;93955.28;5075291;28;20204;-69
2022/11/19 01:51:19;;;;;;;1.23;0.53;;;;;;;11.67;76.27;93950.44;5068041;28;20283;-70
2022/11/19 01:53:48;;;;;;;0.70;0.47;;;;;;;11.68;76.06;93946.81;5068798;28;20185;-71
2022/11/19 01:56:16;;;;;;;1.53;0.70;;;;;;;11.58;76.52;93941.03;5072260;28;20189;-71
2022/11/19 01:58:46;;;;;;;1.10;0.70;;;;;;;11.46;77.47;93944.13;5071994;28;20187;-65
2022/11/19 02:01:13;;;;;;;0.53;0.53;;;;;;;11.50;77.53;93962.19;5077668;28;20177;-68
2022/11/19 02:03:39;;;;;;;1.60;0.60;;;;;;;11.57;76.69;93939.38;5087030;28;20234;-68
2022/11/19 02:06:06;;;;;;;0.60;0.60;;;;;;;11.47;78.15;93958.94;5067439;28;20180;-68
2022/11/19 02:08:44;;;;;;;0.80;0.57;;;;;;;11.38;78.94;93949.47;5075819;28;20217;-69
2022/11/19 02:11:47;;;;;;;1.23;0.70;;;;;;;11.29;79.94;93953.22;5086668;28;20200;-63
2022/11/19 02:14:47;;;;;;;0.70;0.70;;;;;;;11.21;80.39;93956.75;5086226;28;20224;-64
2022/11/19 02:17:34;;;;;;;3.27;1.17;;;;;;;11.12;80.74;93962.28;5084665;28;20176;-68
2022/11/19 02:20:19;;;;;;;2.03;0.90;;;;;;;11.09;81.14;93963.44;5084767;28;20185;-68
2022/11/19 02:23:03;;;;;;;1.43;0.93;;;;;;;11.00;81.58;93949.56;5061753;28;20177;-65
2022/11/19 02:25:37;;;;;;;1.57;0.80;;;;;;;11.01;81.93;93960.91;5087173;28;20181;-65
2022/11/19 02:28:34;;;;;;;1.37;1.20;;;;;;;10.90;81.95;93971.88;5078417;28;20184;-65
2022/11/19 02:31:11;;;;;;;2.10;1.00;;;;;;;10.86;82.17;93983.75;5089200;28;20204;-64
2022/11/19 02:33:48;;;;;;;1.77;0.83;;;;;;;10.89;81.42;93992.09;5087896;28;20192;-67
2022/11/19 02:36:17;;;;;;;1.00;0.90;;;;;;;10.78;81.99;94001.25;5068361;28;20177;-69
2022/11/19 02:39:19;;;;;;;1.63;0.93;;;;;;;10.95;81.91;94001.09;5088372;28;20188;-67
2022/11/19 02:41:54;;;;;;;1.20;1.10;;;;;;;10.78;82.04;93998.59;5072351;28;20180;-67
2022/11/19 02:47:19;;;;;;;2.90;0.90;;;;;;;10.56;82.76;94016.03;5073206;28;20612;-67
2022/11/19 02:49:46;;;;;;;1.10;1.00;;;;;;;10.70;81.98;94005.75;5076197;28;20185;-71
2022/11/19 02:52:14;;;;;;;2.17;1.20;;;;;;;10.68;82.24;94026.13;5058025;28;20300;-72
2022/11/19 02:54:40;;;;;;;1.20;1.10;;;;;;;10.60;82.57;94029.66;5073606;28;20181;-68
2022/11/19 02:57:08;;;;;;;2.50;1.30;;;;;;;10.54;82.85;94019.84;5070758;28;20177;-68
2022/11/19 03:05:18;;;;;;;2.03;1.30;;;;;;;10.52;83.04;94027.06;5071673;28;20192;-72
2022/11/19 03:07:43;;;;;;;1.50;1.20;;;;;;;10.57;83.09;94048.41;5086074;28;20184;-67
2022/11/19 03:10:10;;;;;;;1.63;1.30;;;;;;;10.54;82.98;94054.00;5071230;28;20181;-68
2022/11/19 03:12:42;;;;;;;1.40;1.30;;;;;;;10.50;82.61;94048.25;5085629;28;20254;-68
2022/11/19 03:18:24;;;;;;;1.73;1.50;;;;;;;10.37;82.99;94053.28;5067762;28;20273;-72
2022/11/19 03:21:06;;;;;;;4.33;1.60;;;;;;;10.36;83.35;94051.66;5069928;28;20271;-68
2022/11/19 03:23:42;;;;;;;2.20;1.40;;;;;;;10.29;83.03;94053.34;5070789;28;20207;-69
2022/11/19 03:26:44;;;;;;;1.50;1.40;;;;;;;10.31;83.19;94061.88;5087429;28;20184;-69
2022/11/19 03:29:12;;;;;;;2.80;1.40;;;;;;;10.31;83.05;94061.88;5070464;28;20233;-69
2022/11/19 03:31:42;;;;;;;1.50;1.20;;;;;;;10.29;83.05;94055.97;5071934;28;20199;-70
2022/11/19 03:34:13;;;;;;;1.57;1.47;;;;;;;10.31;83.01;94061.88;5072092;28;20291;-70
2022/11/19 03:36:41;;;;;;;1.63;1.53;;;;;;;10.32;83.05;94066.16;5071878;28;20176;-70
2022/11/19 03:39:14;;;;;;;2.17;1.50;;;;;;;10.31;82.88;94064.50;5071127;28;20188;-73
2022/11/19 03:41:41;;;;;;;1.87;1.67;;;;;;;10.28;82.83;94054.34;5075213;28;20192;-65
2022/11/19 03:44:15;;;;;;;1.93;1.50;;;;;;;10.23;82.69;94056.63;5067975;28;20173;-65
2022/11/19 03:46:42;;;;;;;2.10;1.87;;;;;;;10.27;82.80;94057.94;5087181;28;20211;-73
2022/11/19 03:49:10;;;;;;;3.83;1.73;;;;;;;10.23;82.66;94057.44;5085808;28;20250;-73
2022/11/19 03:51:45;;;;;;;1.73;1.60;;;;;;;10.31;82.47;94075.00;5088014;28;20225;-72
2022/11/19 03:54:11;;;;;;;2.90;1.87;;;;;;;10.27;82.56;94078.97;5077462;28;20176;-73
2022/11/19 03:56:39;;;;;;;2.13;1.83;;;;;;;10.20;82.96;94078.81;5071827;28;20262;-73
2022/11/19 03:59:07;;;;;;;2.30;2.10;;;;;;;10.22;82.59;94081.28;5069439;28;20180;-72
2022/11/19 04:01:34;;;;;;;4.00;2.30;;;;;;;10.14;82.42;94088.19;5087902;28;20244;-72
2022/11/19 04:06:43;;;;;;;2.33;2.13;;;;;;;10.12;82.92;94095.44;5070784;28;20190;-72
2022/11/19 04:09:09;;;;;;;3.20;2.50;;;;;;;10.15;82.65;94097.72;5073098;28;20185;-71
2022/11/19 04:11:34;;;;;;;2.97;2.20;;;;;;;10.12;82.83;94102.50;5070130;28;20216;-70
2022/11/19 04:14:00;;;;;;;2.90;2.27;;;;;;;10.05;83.30;94096.28;5068163;28;20185;-73
2022/11/19 04:16:25;;;;;;;2.83;2.20;;;;;;;9.99;83.56;94099.59;5071146;28;20204;-68
2022/11/19 04:18:50;;;;;;;2.43;2.13;;;;;;;9.87;83.98;94110.47;5070118;28;20292;-63
2022/11/19 04:21:16;;;;;;;2.43;2.23;;;;;;;9.88;84.05;94112.09;5086969;28;20196;-64
2022/11/19 04:23:41;;;;;;;3.23;2.90;;;;;;;9.92;84.06;94123.09;5072053;28;20176;-70
2022/11/19 04:26:07;;;;;;;2.67;2.47;;;;;;;9.90;83.62;94118.00;5086038;28;20185;-69
2022/11/19 04:28:32;;;;;;;2.93;2.63;;;;;;;9.82;83.52;94118.03;5086007;28;20212;-69
2022/11/19 04:30:58;;;;;;;3.30;2.80;;;;;;;9.86;83.46;94114.09;5067827;28;20204;-70
2022/11/19 04:33:23;;;;;;;4.53;2.83;;;;;;;9.89;83.33;94112.91;5086253;28;20231;-70
2022/11/19 04:35:48;;;;;;;2.50;2.30;;;;;;;9.90;83.63;94115.38;5067086;28;20189;-72
2022/11/19 04:38:14;;;;;;;3.03;2.73;;;;;;;9.86;83.59;94114.09;5069070;28;20196;-69
2022/11/19 04:40:40;;;;;;;3.43;2.60;;;;;;;9.82;83.67;94125.91;5070852;28;20231;-69
2022/11/19 04:43:06;;;;;;;3.40;2.93;;;;;;;9.94;83.47;94142.13;5086231;28;20189;-68
2022/11/19 04:45:31;;;;;;;2.67;2.40;;;;;;;9.83;83.11;94140.69;5071749;28;20230;-68
2022/11/19 04:47:57;;;;;;;3.33;3.03;;;;;;;9.80;83.51;94140.19;5086260;28;20185;-73
2022/11/19 04:50:22;;;;;;;4.10;3.37;;;;;;;9.84;83.30;94144.13;5071919;28;20212;-68
2022/11/19 04:52:48;;;;;;;6.63;3.97;;;;;;;9.79;82.81;94146.44;5074921;28;20216;-68
2022/11/19 04:55:13;;;;;;;4.47;4.07;;;;;;;9.83;82.81;94160.88;5086246;28;20196;-69
2022/11/19 04:57:39;;;;;;;4.00;3.70;;;;;;;9.87;82.79;94162.19;5072220;28;20204;-69
2022/11/19 05:00:05;;;;;;;3.97;3.60;;;;;;;9.80;82.39;94159.41;5084663;28;20192;-69
2022/11/19 05:02:31;;;;;;;5.23;3.57;;;;;;;9.69;82.74;94159.75;5070956;28;20185;-64
2022/11/19 05:04:56;;;;;;;3.60;3.30;;;;;;;9.55;83.36;94161.25;5086572;28;20231;-73
2022/11/19 05:07:22;;;;;;;5.30;4.43;;;;;;;9.56;83.89;94176.00;5085303;28;20177;-68
2022/11/19 05:09:47;;;;;;;5.63;4.30;;;;;;;9.52;83.10;94185.22;5071176;28;20228;-67
2022/11/19 05:12:13;;;;;;;4.40;4.00;;;;;;;9.48;83.60;94194.38;5068614;28;20285;-72
2022/11/19 05:14:38;;;;;;;5.07;4.20;;;;;;;9.41;83.48;94198.66;5070011;28;20172;-72
2022/11/19 05:17:04;;;;;;;5.63;4.60;;;;;;;9.33;83.72;94214.38;5076946;28;20279;-68
2022/11/19 05:19:30;;;;;;;5.93;4.87;;;;;;;9.50;83.57;94222.09;5068064;28;20196;-68
2022/11/19 05:21:55;;;;;;;5.57;5.07;;;;;;;9.54;83.20;94234.91;5070707;28;20180;-68
2022/11/19 05:24:20;;;;;;;5.90;5.30;;;;;;;9.60;83.14;94250.00;5067464;28;20333;-68
2022/11/19 05:26:46;;;;;;;5.90;5.13;;;;;;;9.55;83.08;94247.88;5081060;28;20189;-68
2022/11/19 05:29:11;;;;;;;5.50;4.30;;;;;;;9.68;82.20;94244.75;5086201;28;20222;-68
2022/11/19 05:31:37;;;;;;;5.70;5.10;;;;;;;9.56;82.13;94251.31;5071752;28;20228;-69
2022/11/19 05:34:03;;;;;;;6.23;5.60;;;;;;;9.50;83.06;94255.41;5084329;28;20182;-68
2022/11/19 05:36:28;;;;;;;12.00;10.57;;;;;;;9.48;83.40;94252.13;5083659;28;20208;-69
2022/11/19 05:38:53;;;;;;;8.23;6.80;;;;;;;9.56;83.55;94262.63;5070298;28;20246;-69
2022/11/19 05:41:19;;;;;;;6.60;5.93;;;;;;;9.47;83.35;94253.94;5070798;28;20192;-69
2022/11/19 05:43:44;;;;;;;6.97;5.63;;;;;;;9.69;82.92;94270.81;5070820;28;20209;-69
2022/11/19 05:46:10;;;;;;;6.17;5.57;;;;;;;9.75;82.21;94269.34;5069372;28;20196;-69
2022/11/19 05:48:35;;;;;;;5.97;5.37;;;;;;;9.74;82.33;94269.53;5086141;28;20283;-69
2022/11/19 05:51:01;;;;;;;7.17;6.00;;;;;;;9.81;82.43;94278.34;5071837;28;20229;-63
2022/11/19 05:53:27;;;;;;;7.17;6.30;;;;;;;9.75;82.29;94286.91;5064057;28;20507;-64
2022/11/19 05:55:53;;;;;;;8.50;7.60;;;;;;;9.79;81.62;94286.41;5067654;28;20188;-69
2022/11/19 05:58:18;;;;;;;9.07;7.37;;;;;;;9.70;81.85;94290.84;5070293;28;20178;-64
2022/11/19 06:00:44;;;;;;;8.53;7.37;;;;;;;9.78;81.69;94283.94;5070026;28;20275;-69
2022/11/19 06:03:09;;;;;;;7.87;7.17;;;;;;;9.66;82.46;94286.91;5066522;28;20189;-64
2022/11/19 06:05:35;;;;;;;7.57;6.80;;;;;;;9.60;83.00;94284.94;5068754;28;20188;-64
2022/11/19 06:08:00;;;;;;;6.60;5.87;;;;;;;9.51;83.40;94293.78;5069414;28;20185;-64
2022/11/19 06:10:26;;;;;;;7.73;7.03;;;;;;;9.50;83.49;94300.03;5069979;28;20204;-64
2022/11/19 06:12:51;;;;;;;7.20;6.37;;;;;;;9.45;83.61;94304.94;5069263;28;20205;-68
2022/11/19 06:15:16;;;;;;;8.20;7.40;;;;;;;9.50;83.02;94310.53;5068734;28;20196;-69
2022/11/19 06:17:42;;;;;;;8.43;7.03;;;;;;;9.44;83.46;94321.66;5070565;28;20188;-69
2022/11/19 06:20:09;;;;;;;7.93;7.17;;;;;;;9.42;84.01;94334.13;5069406;28;20185;-64
2022/11/19 06:22:36;;;;;;;7.70;6.90;;;;;;;9.34;84.08;94340.16;5069822;28;20177;-65
2022/11/19 06:25:03;;;;;;;7.97;7.17;;;;;;;9.48;83.95;94347.41;5072865;28;20184;-68
2022/11/19 06:27:28;;;;;;;7.00;6.30;;;;;;;9.48;83.99;94352.66;5064783;28;20189;-68
2022/11/19 06:29:53;;;;;;;9.30;7.67;;;;;;;9.53;83.90;94354.81;5068168;28;20188;-75
2022/11/19 06:32:19;;;;;;;7.67;6.87;;;;;;;9.63;83.92;94365.97;5083265;28;20202;-68
2022/11/19 06:34:44;;;;;;;7.93;7.23;;;;;;;9.76;83.29;94362.06;5071990;28;20186;-69
2022/11/19 06:37:10;;;;;;;8.77;7.97;;;;;;;9.72;83.01;94361.56;5085407;28;20185;-68
2022/11/19 06:39:35;;;;;;;8.80;8.03;;;;;;;9.56;83.60;94359.72;5085553;28;20180;-65
2022/11/19 06:44:45;;;;;;;11.10;8.87;;;;;;;9.87;83.63;94383.56;5070545;28;20298;-65
2022/11/19 06:47:10;;;;;;;8.00;7.20;;;;;;;10.07;82.06;94389.31;5082586;28;20180;-65
2022/11/19 06:49:36;;;;;;;11.23;8.00;;;;;;;9.88;82.92;94389.63;5085381;28;20193;-64
2022/11/19 06:52:01;;;;;;;9.50;8.57;;;;;;;9.93;82.94;94396.03;5067950;28;20309;-67
2022/11/19 06:54:27;;;;;;;10.20;9.20;;;;;;;9.96;82.61;94394.06;5069249;28;20204;-64
2022/11/19 06:56:52;;;;;;;9.73;8.73;;;;;;;10.00;82.77;94392.78;5071740;28;20192;-69
2022/11/19 06:59:17;;;;;;;8.97;8.17;;;;;;;10.03;82.67;94398.53;5071288;28;20211;-69
2022/11/19 07:01:43;;;;;;;10.33;8.83;;;;;;;10.12;82.26;94401.97;5071449;28;20200;-64
2022/11/19 07:04:09;;;;;;;10.27;8.47;;;;;;;10.06;82.55;94397.38;5085060;28;20195;-63
2022/11/19 07:06:35;;;;;;;10.50;9.40;;;;;;;10.08;82.52;94401.47;5071455;28;20196;-65
2022/11/19 07:09:01;;;;;;;10.37;9.13;;;;;;;10.11;82.49;94398.53;5087277;28;20184;-71
2022/11/19 07:11:27;;;;;;;11.63;8.90;;;;;;;10.14;82.08;94405.25;5086158;28;20205;-68
2022/11/19 07:13:57;;;;;;;11.07;9.97;;;;;;;10.14;82.02;94406.06;5072068;28;20200;-73
2022/11/19 07:16:24;;;;;;;10.47;9.40;;;;;;;10.28;81.47;94409.06;5071952;28;20181;-73
2022/11/19 07:18:49;;;;;;;11.83;9.20;;;;;;;10.37;81.16;94410.69;5074019;28;20197;-72
2022/11/19 07:21:15;;;;;;;10.93;9.93;;;;;;;10.45;80.30;94408.06;5074544;28;20185;-73
2022/11/19 07:23:40;;;;;;;10.23;9.17;;;;;;;10.56;80.21;94399.84;5072452;28;20200;-72
2022/11/19 07:26:06;;;;;;;12.13;10.70;;;;;;;10.56;80.18;94402.47;5071748;28;20220;-69
2022/11/19 07:28:33;;;;;;;11.87;10.67;;;;;;;10.42;80.72;94387.34;5087889;28;20244;-68
2022/11/19 07:31:03;;;;;;;10.87;9.77;;;;;;;10.60;80.34;94388.00;5071908;28;20209;-68
2022/11/19 07:33:28;;;;;;;9.67;8.43;;;;;;;10.78;79.52;94397.50;5064839;28;20188;-68
2022/11/19 07:35:53;;;;;;;14.07;10.40;;;;;;;10.68;79.38;94394.22;5073270;28;20204;-68
2022/11/19 07:38:19;;;;;;;11.27;10.13;;;;;;;10.53;80.12;94394.06;5088442;28;20195;-64
2022/11/19 07:40:55;;;;;;;13.73;10.73;;;;;;;10.43;81.03;94388.19;5071111;28;20192;-64
2022/11/19 07:43:22;;;;;;;10.47;9.47;;;;;;;10.61;80.56;94396.69;5068752;28;20291;-64
2022/11/19 07:45:48;;;;;;;11.93;10.73;;;;;;;10.71;80.30;94407.03;5070380;28;20181;-65
2022/11/19 07:48:14;;;;;;;12.13;10.77;;;;;;;10.73;80.32;94410.31;5073709;28;20192;-64
2022/11/19 07:50:40;;;;;;;13.00;10.77;;;;;;;10.77;80.72;94417.72;5070984;28;20196;-69
2022/11/19 07:53:09;;;;;;;9.60;8.57;;;;;;;10.93;80.04;94405.50;5071916;28;20207;-70
2022/11/19 07:55:36;;;;;;;8.80;7.87;;;;;;;10.87;80.10;94408.81;5063240;28;20208;-69
2022/11/19 07:58:01;;;;;;;9.63;8.83;;;;;;;10.86;80.68;94401.91;5070461;28;20176;-70
2022/11/19 08:00:27;;;;;;;11.27;10.10;;;;;;;10.86;81.44;94412.44;5075748;28;20205;-74
2022/11/19 08:02:52;;;;;;;11.87;10.73;;;;;;;10.90;81.86;94416.34;5087864;28;20180;-66
2022/11/19 08:05:17;;;;;;;13.20;11.57;;;;;;;10.95;82.17;94414.88;5070737;28;20180;-65
2022/11/19 08:07:43;;;;;;;12.40;11.20;;;;;;;11.01;81.90;94432.63;5069772;28;20189;-64
2022/11/19 08:10:10;;;;;;;12.23;11.03;;;;;;;11.06;82.13;94436.53;5082393;28;20196;-72
2022/11/19 08:12:35;;;;;;;12.97;11.20;;;;;;;11.09;81.79;94431.75;5066925;28;20564;-65
2022/11/19 08:15:01;;;;;;;12.10;10.90;;;;;;;11.10;81.81;94432.59;5073249;28;20243;-70
2022/11/19 08:20:10;;;;;;;12.40;11.13;;;;;;;11.16;82.02;94437.19;5066389;28;20237;-69
2022/11/19 08:22:36;;;;;;;12.83;11.63;;;;;;;11.00;82.63;94446.75;5072427;28;20181;-69
2022/11/19 08:25:03;;;;;;;13.53;11.90;;;;;;;11.11;82.93;94460.53;5071497;28;20184;-70
2022/11/19 08:27:28;;;;;;;13.07;11.70;;;;;;;11.27;82.70;94455.22;5069786;28;20200;-70
2022/11/19 08:29:54;;;;;;;13.67;12.23;;;;;;;11.23;82.75;94443.41;5067275;28;20193;-69
2022/11/19 08:32:19;;;;;;;12.63;11.40;;;;;;;11.13;83.29;94433.06;5070116;28;20244;-69
2022/11/19 08:34:45;;;;;;;13.27;11.87;;;;;;;11.16;83.68;94452.97;5070126;28;20188;-68
2022/11/19 08:37:12;;;;;;;14.00;12.50;;;;;;;11.20;83.92;94459.50;5067387;28;20285;-69
2022/11/19 08:39:39;;;;;;;13.87;12.13;;;;;;;11.19;83.85;94447.34;5087564;28;20188;-70
2022/11/19 08:44:49;;;;;;;13.67;11.83;;;;;;;11.51;83.17;94449.06;5071505;28;20241;-64
2022/11/19 08:47:14;;;;;;;12.10;10.90;;;;;;;11.74;81.85;94450.94;5067312;28;20200;-64
2022/11/19 08:49:40;;;;;;;12.23;10.80;;;;;;;11.64;81.23;94457.22;5070105;28;20195;-64
2022/11/19 08:52:05;;;;;;;12.00;10.80;;;;;;;11.66;81.88;94449.97;5070594;28;20263;-72
2022/11/19 08:54:31;;;;;;;12.57;11.27;;;;;;;11.80;81.83;94440.50;5066794;28;20319;-73
2022/11/19 08:56:57;;;;;;;11.97;10.77;;;;;;;11.91;81.30;94441.97;5064427;28;20227;-68
2022/11/19 08:59:22;;;;;;;11.87;10.67;;;;;;;11.89;81.53;94450.06;5068524;28;20200;-68
2022/11/19 09:01:49;;;;;;;11.55;10.00;;;;;;;11.93;81.43;94460.25;5073360;28;20200;-68
2022/11/19 09:04:15;;;;;;;10.75;9.68;;;;;;;11.99;81.40;94470.91;5086350;28;20284;-67
2022/11/19 09:06:40;;;;;;;11.87;10.00;;;;;;;12.01;81.00;94458.38;5069607;28;20252;-68
2022/11/19 09:09:07;;;;;;;10.13;9.23;;;;;;;12.03;80.03;94460.81;5069159;28;20192;-68
2022/11/19 09:11:33;;;;;;;10.63;9.53;;;;;;;12.18;79.99;94459.09;5068054;28;20224;-70
2022/11/19 09:13:59;;;;;;;11.30;9.73;;;;;;;12.19;80.00;94473.06;5071557;28;20193;-70
2022/11/19 09:16:25;;;;;;;11.03;9.83;;;;;;;12.27;80.46;94467.75;5068960;28;20203;-70
2022/11/19 09:18:51;;;;;;;11.25;8.65;;;;;;;12.35;80.55;94465.91;5086179;28;20180;-70
2022/11/19 09:21:16;;;;;;;9.20;8.48;;;;;;;12.54;79.49;94475.16;5086151;28;20180;-70
2022/11/19 09:23:42;;;;;;;10.07;9.18;;;;;;;12.74;78.44;94474.66;5073368;28;20177;-70
2022/11/19 09:26:11;;;;;;;10.55;9.40;;;;;;;12.87;77.45;94472.22;5067962;28;20240;-70
2022/11/19 09:28:36;;;;;;;9.95;8.95;;;;;;;13.02;76.78;94453.78;5066565;28;20233;-70
2022/11/19 09:31:05;;;;;;;10.13;9.23;;;;;;;13.07;76.04;94448.78;5069327;28;20215;-70
2022/11/19 09:33:33;;;;;;;9.43;8.63;;;;;;;13.23;75.75;94453.03;5070383;28;20215;-70
2022/11/19 09:35:58;;;;;;;7.38;6.68;;;;;;;13.31;74.62;94450.38;5068830;28;20205;-70
2022/11/19 09:38:24;;;;;;;7.03;6.53;;;;;;;13.45;73.50;94446.09;5069477;28;20189;-72
2022/11/19 09:40:55;;;;;;;6.17;5.67;;;;;;;13.61;72.59;94439.78;5085197;28;20276;-70
2022/11/19 09:43:59;;;;;;;6.63;5.97;;;;;;;13.77;70.94;94428.19;5069613;28;20272;-70
2022/11/19 09:46:49;;;;;;;6.83;6.17;;;;;;;14.17;70.99;94428.63;5085873;28;20193;-68
2022/11/19 09:49:27;;;;;;;8.07;6.25;;;;;;;14.49;70.52;94417.53;5083281;28;20188;-71
2022/11/19 09:52:05;;;;;;;7.03;5.85;;;;;;;14.76;69.66;94408.00;5083565;28;20236;-74
2022/11/19 09:54:32;;;;;;;6.65;5.90;;;;;;;15.09;68.82;94403.94;5082033;28;20407;-70
2022/11/19 09:57:02;;;;;;;5.63;5.00;;;;;;;14.99;68.46;94391.03;5083789;28;20207;-68
2022/11/19 09:59:34;;;;;;;4.63;4.10;;;;;;;15.20;67.13;94384.84;5067906;28;20188;-67
2022/11/19 10:01:59;;;;;;;4.57;3.40;;;;;;;15.37;65.18;94395.94;5068744;28;20275;-67
2022/11/19 10:04:29;;;;;;;3.58;2.65;;;;;;;15.47;64.31;94401.69;5069379;28;20296;-72
2022/11/19 10:07:10;;;;;;;4.22;3.80;;;;;;;15.78;64.12;94395.13;5068460;28;20188;-68
2022/11/19 10:09:36;;;;;;;4.55;4.05;;;;;;;15.73;62.00;94390.44;5067962;28;20233;-70
2022/11/19 10:12:13;;;;;;;5.32;4.82;;;;;;;15.92;63.03;94375.59;5068155;28;20209;-71
2022/11/19 10:14:53;;;;;;;4.38;3.95;;;;;;;16.00;62.51;94377.25;5070596;28;20195;-69
2022/11/19 10:17:31;;;;;;;4.00;3.42;;;;;;;16.21;61.60;94374.44;5085333;28;20192;-69
2022/11/19 10:20:25;;;;;;;5.50;4.47;;;;;;;16.20;60.05;94367.50;5072415;28;20191;-69
2022/11/19 10:23:09;;;;;;;3.33;3.10;;;;;;;16.33;60.08;94385.25;5084818;28;20177;-66
2022/11/19 10:25:38;;;;;;;3.45;2.90;;;;;;;16.40;58.45;94379.97;5069672;28;20176;-65
2022/11/19 10:28:16;;;;;;;2.95;2.65;;;;;;;16.47;59.05;94376.28;5067724;28;20191;-66
2022/11/19 10:30:51;;;;;;;2.95;2.65;;;;;;;16.41;58.93;94390.38;5089079;28;20177;-73
2022/11/19 10:33:31;;;;;;;4.70;2.95;;;;;;;16.82;58.15;94385.94;5087814;28;20279;-70
2022/11/19 10:36:01;;;;;;;3.80;3.10;;;;;;;16.80;57.20;94380.81;5086617;28;20289;-71
2022/11/19 10:38:36;;;;;;;4.18;3.03;;;;;;;17.28;56.87;94374.41;5069655;28;20208;-71
2022/11/19 10:41:18;;;;;;;4.00;2.70;;;;;;;17.56;55.86;94372.28;5066733;28;20179;-72
2022/11/19 10:44:36;;;;;;;5.20;2.92;;;;;;;17.43;55.71;94367.00;5069828;28;20262;-74
2022/11/19 10:47:01;;;;;;;5.20;3.00;;;;;;;17.29;56.68;94358.22;5049715;28;20262;-73
2022/11/19 10:49:27;;;;;;;4.85;3.03;;;;;;;17.54;56.11;94361.03;5032518;28;20196;-73
2022/11/19 10:51:52;;;;;;;4.50;2.78;;;;;;;17.43;54.99;94356.38;5049048;28;20304;-73
2022/11/19 10:54:24;;;;;;;2.80;2.60;;;;;;;17.38;56.09;94354.34;5044830;28;20328;-71
2022/11/19 10:56:51;;;;;;;2.85;2.63;;;;;;;17.52;55.39;94351.63;5030359;28;20253;-72
2022/11/19 10:59:22;;;;;;;3.80;2.72;;;;;;;17.61;54.86;94348.53;5049722;28;20185;-72
2022/11/19 11:01:51;;;;;;;4.53;2.90;;;;;;;17.72;54.72;94346.19;5048637;28;20193;-71
2022/11/19 11:04:22;;;;;;;3.75;2.78;;;;;;;17.92;52.93;94338.97;5048388;28;20217;-72
2022/11/19 11:06:49;;;;;;;3.42;2.45;;;;;;;18.27;53.17;94346.53;5050551;28;20181;-70
2022/11/19 11:09:34;;;;;;;3.13;2.67;;;;;;;18.23;53.35;94345.31;5045907;28;20193;-70
2022/11/19 11:15:07;;;;;;;6.55;3.50;;;;;;;18.47;52.33;94347.22;5049147;28;20216;-72
2022/11/19 11:17:35;;;;;;;9.35;3.28;;;;;;;18.53;52.21;94316.25;5048898;28;20227;-72
2022/11/19 11:20:25;;;;;;;3.42;2.88;;;;;;;18.29;53.01;94315.22;5031762;28;20237;-71
2022/11/19 11:23:14;;;;;;;5.70;3.20;;;;;;;18.31;53.30;94337.09;4993806;28;20214;-71
2022/11/19 11:25:49;;;;;;;3.95;3.28;;;;;;;18.04;53.60;94341.75;5026095;28;20187;-72
2022/11/19 11:28:17;;;;;;;5.28;3.45;;;;;;;18.25;52.22;94329.97;5011677;28;20360;-69
2022/11/19 11:30:56;;;;;;;3.95;3.15;;;;;;;17.71;53.72;94331.28;5010046;28;20186;-71
2022/11/19 11:33:27;;;;;;;3.47;3.10;;;;;;;18.18;52.81;94313.25;5007834;28;20202;-69
2022/11/19 11:35:56;;;;;;;3.33;2.83;;;;;;;17.98;53.33;94334.66;5008779;28;20286;-70
2022/11/19 11:38:24;;;;;;;3.00;2.60;;;;;;;18.23;53.38;94327.53;5012409;28;20668;-69
2022/11/19 11:41:00;;;;;;;3.80;2.60;;;;;;;19.11;52.15;94309.75;5006986;28;20202;-69
2022/11/19 11:43:27;;;;;;;3.15;2.60;;;;;;;19.30;50.79;94300.75;5009653;28;20213;-69
2022/11/19 11:45:57;;;;;;;3.28;2.20;;;;;;;19.98;49.17;94313.00;5013096;28;20186;-69
2022/11/19 11:48:23;;;;;;;3.85;2.10;;;;;;;20.43;47.38;94312.53;5011333;28;20197;-70
2022/11/19 11:50:49;;;;;;;4.25;2.42;;;;;;;20.61;47.38;94316.19;5027801;28;20186;-69
2022/11/19 11:53:26;;;;;;;3.10;1.98;;;;;;;20.12;46.77;94318.97;5007550;28;20317;-74
2022/11/19 11:55:57;;;;;;;2.55;2.35;;;;;;;19.16;50.17;94315.25;5011942;28;20185;-72
2022/11/19 11:58:32;;;;;;;4.55;2.60;;;;;;;18.82;50.64;94317.44;5024030;28;20209;-71
2022/11/19 12:01:18;;;;;;;2.88;2.30;;;;;;;19.12;51.23;94316.72;5062822;28;20197;-71
2022/11/19 12:04:12;;;;;;;2.92;2.15;;;;;;;18.76;50.12;94328.16;5069716;28;20216;-71
2022/11/19 12:06:46;;;;;;;3.83;2.25;;;;;;;18.75;50.99;94313.22;5069362;28;20287;-69